Time;durP1;ratioP1;P1;durP2;ratioP2;P2;SDS_P1;SDS_P2;PMS_P1;PMS_P2;Temp;Humidity;BMP_temperature;BMP_pressure;BME280_temperature;BME280_humidity;BME280_pressure;Samples;Min_cycle;Max_cycle;Signal;HPM_P1;HPM_P2
2023/06/04 00:02:04;;;;;;;1.75;1.65;;;17.60;99.90;;;;;;5095415;28;20784;-76
2023/06/04 00:04:33;;;;;;;2.05;1.90;;;17.60;99.90;;;;;;5095504;28;20281;-75
2023/06/04 00:07:00;;;;;;;1.70;1.60;;;17.60;99.90;;;;;;5094344;28;20197;-75
2023/06/04 00:09:26;;;;;;;1.95;1.85;;;17.60;99.90;;;;;;5092029;28;20217;-75
2023/06/04 00:11:53;;;;;;;1.77;1.65;;;17.60;99.90;;;;;;5089622;28;20225;-76
2023/06/04 00:14:20;;;;;;;1.60;1.50;;;17.60;99.90;;;;;;5092898;28;20289;-76
2023/06/04 00:16:47;;;;;;;1.48;1.38;;;17.60;99.90;;;;;;5096005;28;20236;-76
2023/06/04 00:19:14;;;;;;;1.73;1.63;;;17.60;99.90;;;;;;5095243;28;20276;-76
2023/06/04 00:21:42;;;;;;;1.67;1.58;;;17.70;99.90;;;;;;5092893;28;20256;-75
2023/06/04 00:24:12;;;;;;;1.42;1.40;;;17.70;99.90;;;;;;5098119;28;22599;-75
2023/06/04 00:26:39;;;;;;;1.70;1.60;;;17.70;99.90;;;;;;5099219;28;20254;-76
2023/06/04 00:29:06;;;;;;;1.60;1.50;;;17.70;99.90;;;;;;5097669;28;20221;-75
2023/06/04 00:31:33;;;;;;;1.55;1.45;;;17.80;99.90;;;;;;5097478;28;20284;-76
2023/06/04 00:34:00;;;;;;;1.60;1.50;;;17.70;99.90;;;;;;5097686;27;20315;-76
2023/06/04 00:36:26;;;;;;;1.40;1.30;;;17.80;99.90;;;;;;5095416;28;20200;-76
2023/06/04 00:38:55;;;;;;;1.33;1.23;;;17.80;99.90;;;;;;5096929;28;20453;-75
2023/06/04 00:41:22;;;;;;;1.60;1.50;;;17.70;99.90;;;;;;5097722;28;20747;-75
2023/06/04 00:43:55;;;;;;;1.83;1.73;;;17.70;99.90;;;;;;5099196;27;20313;-75
2023/06/04 00:46:23;;;;;;;1.92;1.83;;;17.70;99.90;;;;;;5096163;28;20288;-75
2023/06/04 00:48:50;;;;;;;1.60;1.50;;;17.60;99.90;;;;;;5091741;28;20304;-76
2023/06/04 00:51:17;;;;;;;1.73;1.63;;;17.50;99.90;;;;;;5095770;28;20224;-76
2023/06/04 00:53:44;;;;;;;1.70;1.60;;;17.50;99.90;;;;;;5096149;27;20304;-76
2023/06/04 00:56:13;;;;;;;1.90;1.60;;;17.40;99.90;;;;;;5095458;28;20201;-75
2023/06/04 00:58:42;;;;;;;1.73;1.63;;;17.30;99.90;;;;;;5092562;28;20727;-75
2023/06/04 01:01:18;;;;;;;1.90;1.80;;;17.20;99.90;;;;;;5093290;28;20232;-75
2023/06/04 01:03:50;;;;;;;1.85;1.75;;;17.20;99.90;;;;;;5095003;28;20706;-75
2023/06/04 01:06:22;;;;;;;1.95;1.85;;;17.10;99.90;;;;;;5095777;28;20217;-76
2023/06/04 01:08:54;;;;;;;1.85;1.70;;;17.10;99.90;;;;;;5098531;28;20226;-76
2023/06/04 01:11:32;;;;;;;2.03;1.60;;;17.10;99.90;;;;;;5095054;27;20235;-75
2023/06/04 01:13:59;;;;;;;1.50;1.40;;;17.00;99.90;;;;;;5094598;28;20231;-75
2023/06/04 01:16:28;;;;;;;1.90;1.80;;;17.00;99.90;;;;;;5094339;27;20224;-75
2023/06/04 01:18:59;;;;;;;1.70;1.60;;;17.00;99.90;;;;;;5091017;27;20952;-76
2023/06/04 01:21:30;;;;;;;1.77;1.67;;;17.00;99.90;;;;;;5096147;27;20230;-76
2023/06/04 01:24:01;;;;;;;1.73;1.63;;;17.00;99.90;;;;;;5093343;27;20252;-75
2023/06/04 01:26:32;;;;;;;2.22;2.03;;;17.00;99.90;;;;;;5093822;28;20203;-76
2023/06/04 01:29:00;;;;;;;2.08;1.98;;;17.00;99.90;;;;;;5092778;28;20665;-77
2023/06/04 01:31:32;;;;;;;1.60;1.50;;;17.00;99.90;;;;;;5091280;28;20197;-77
2023/06/04 01:33:59;;;;;;;1.85;1.75;;;17.00;99.90;;;;;;5094839;28;20283;-78
2023/06/04 01:36:26;;;;;;;1.60;1.50;;;17.00;99.90;;;;;;5095456;28;20224;-77
2023/06/04 01:38:53;;;;;;;1.60;1.50;;;17.10;99.90;;;;;;5093298;28;20199;-78
2023/06/04 01:41:20;;;;;;;1.90;1.80;;;17.00;99.90;;;;;;5089818;27;20288;-78
2023/06/04 01:43:50;;;;;;;2.15;1.85;;;17.00;99.90;;;;;;5094954;27;20307;-77
2023/06/04 01:46:17;;;;;;;2.08;1.75;;;16.90;99.90;;;;;;5092812;28;20283;-78
2023/06/04 01:48:44;;;;;;;2.20;2.00;;;16.90;99.90;;;;;;5092634;28;20763;-77
2023/06/04 01:51:11;;;;;;;2.15;2.05;;;16.90;99.90;;;;;;5097596;27;20771;-78
2023/06/04 01:53:38;;;;;;;2.08;1.98;;;16.90;99.90;;;;;;5094947;28;20300;-77
2023/06/04 01:56:05;;;;;;;1.70;1.60;;;16.90;99.90;;;;;;5091188;28;20227;-77
2023/06/04 01:58:33;;;;;;;2.03;1.92;;;16.90;99.90;;;;;;5092966;28;20199;-78
2023/06/04 02:01:03;;;;;;;2.00;1.90;;;16.90;99.90;;;;;;5094681;27;20239;-78
2023/06/04 02:03:36;;;;;;;1.83;1.70;;;17.00;99.90;;;;;;5091658;28;20213;-78
2023/06/04 02:06:04;;;;;;;2.00;1.90;;;17.00;99.90;;;;;;5093062;28;20886;-77
2023/06/04 02:08:33;;;;;;;1.80;1.70;;;17.00;99.90;;;;;;5098596;28;20224;-77
2023/06/04 02:11:00;;;;;;;2.28;2.05;;;17.00;99.90;;;;;;5093494;27;20193;-78
2023/06/04 02:13:27;;;;;;;1.85;1.75;;;17.00;99.90;;;;;;5095339;27;20224;-77
2023/06/04 02:15:54;;;;;;;2.00;1.90;;;17.00;99.90;;;;;;5095555;28;20201;-78
2023/06/04 02:18:22;;;;;;;1.90;1.80;;;17.10;99.90;;;;;;5094885;28;20197;-78
2023/06/04 02:20:50;;;;;;;1.85;1.75;;;17.10;99.90;;;;;;5095711;27;20857;-78
2023/06/04 02:23:19;;;;;;;1.80;1.70;;;17.10;99.90;;;;;;5091369;28;20282;-77
2023/06/04 02:25:47;;;;;;;1.70;1.60;;;17.10;99.90;;;;;;5093325;28;20676;-78
2023/06/04 02:28:14;;;;;;;1.77;1.67;;;17.10;99.90;;;;;;5095221;28;20793;-78
2023/06/04 02:30:41;;;;;;;1.60;1.50;;;17.10;99.90;;;;;;5094088;27;20718;-77
2023/06/04 02:33:09;;;;;;;2.13;2.00;;;17.20;99.90;;;;;;5096530;27;20690;-78
2023/06/04 02:35:38;;;;;;;1.70;1.60;;;17.20;99.90;;;;;;5089562;28;20236;-77
2023/06/04 02:38:05;;;;;;;1.92;1.83;;;17.20;99.90;;;;;;5088737;28;20202;-78
2023/06/04 02:40:32;;;;;;;1.88;1.77;;;17.20;99.90;;;;;;5096734;28;20223;-77
2023/06/04 02:42:59;;;;;;;1.80;1.70;;;17.10;99.90;;;;;;5097713;27;20321;-77
2023/06/04 02:45:26;;;;;;;2.30;1.70;;;17.00;99.90;;;;;;5093482;28;20227;-77
2023/06/04 02:47:53;;;;;;;1.70;1.60;;;17.00;99.90;;;;;;5094958;28;20364;-77
2023/06/04 02:50:20;;;;;;;2.10;1.90;;;17.10;99.90;;;;;;5087953;28;20221;-78
2023/06/04 02:52:49;;;;;;;2.20;1.50;;;17.00;99.90;;;;;;5090289;28;20316;-77
2023/06/04 02:55:15;;;;;;;1.80;1.70;;;17.00;99.90;;;;;;5094917;28;20267;-77
2023/06/04 02:57:44;;;;;;;1.80;1.70;;;17.00;99.90;;;;;;5091586;28;22198;-77
2023/06/04 03:00:12;;;;;;;1.70;1.60;;;17.10;99.90;;;;;;5093050;28;20198;-77
2023/06/04 03:02:41;;;;;;;2.00;1.90;;;17.10;99.90;;;;;;5088051;27;20249;-78
2023/06/04 03:05:12;;;;;;;2.00;1.90;;;17.00;99.90;;;;;;5091094;28;20205;-77
2023/06/04 03:07:40;;;;;;;1.70;1.60;;;17.00;99.90;;;;;;5091441;28;20285;-78
2023/06/04 03:10:10;;;;;;;1.73;1.63;;;17.00;99.90;;;;;;5093879;28;20248;-77
2023/06/04 03:12:37;;;;;;;1.77;1.67;;;16.90;99.90;;;;;;5089031;27;20213;-77
2023/06/04 03:15:04;;;;;;;1.77;1.67;;;16.90;99.90;;;;;;5090718;28;20293;-77
2023/06/04 03:17:32;;;;;;;2.10;2.00;;;16.90;99.90;;;;;;5092180;28;20251;-76
2023/06/04 03:19:59;;;;;;;1.90;1.80;;;16.90;99.90;;;;;;5092955;28;20300;-77
2023/06/04 03:22:28;;;;;;;1.90;1.80;;;16.90;99.90;;;;;;5091960;27;20232;-77
2023/06/04 03:24:55;;;;;;;3.33;1.58;;;16.80;99.90;;;;;;5090087;28;20202;-76
2023/06/04 03:27:23;;;;;;;1.67;1.58;;;16.80;99.90;;;;;;5092964;28;20879;-77
2023/06/04 03:29:50;;;;;;;1.90;1.80;;;16.80;99.90;;;;;;5091013;28;20273;-77
2023/06/04 03:32:17;;;;;;;1.90;1.80;;;16.80;99.90;;;;;;5090114;28;20223;-77
2023/06/04 03:34:45;;;;;;;1.80;1.70;;;16.80;99.90;;;;;;5094742;28;20197;-77
2023/06/04 03:37:12;;;;;;;1.90;1.80;;;16.80;99.90;;;;;;5090238;28;20591;-77
2023/06/04 03:39:39;;;;;;;1.75;1.65;;;16.80;99.90;;;;;;5092994;28;21824;-77
2023/06/04 03:42:06;;;;;;;1.70;1.60;;;16.70;99.90;;;;;;5095739;28;20588;-77
2023/06/04 03:44:34;;;;;;;2.10;2.00;;;16.70;99.90;;;;;;5091895;28;20197;-77
2023/06/04 03:47:01;;;;;;;2.25;1.75;;;16.60;99.90;;;;;;5090645;28;20293;-77
2023/06/04 03:49:28;;;;;;;1.75;1.65;;;16.60;99.90;;;;;;5093704;28;20765;-76
2023/06/04 03:51:56;;;;;;;1.95;1.83;;;16.70;99.90;;;;;;5090215;28;20197;-77
2023/06/04 03:54:23;;;;;;;1.73;1.63;;;16.70;99.90;;;;;;5087161;28;20202;-77
2023/06/04 03:56:49;;;;;;;2.00;1.83;;;16.70;99.90;;;;;;5088118;28;20250;-77
2023/06/04 03:59:16;;;;;;;1.92;1.80;;;16.70;99.90;;;;;;5093713;28;20287;-76
2023/06/04 04:01:45;;;;;;;1.80;1.70;;;16.70;99.90;;;;;;5091212;27;20230;-76
2023/06/04 04:04:12;;;;;;;1.52;1.42;;;16.70;99.90;;;;;;5096544;28;20308;-77
2023/06/04 04:06:39;;;;;;;1.75;1.65;;;16.70;99.90;;;;;;5094354;28;20889;-77
2023/06/04 04:09:06;;;;;;;1.80;1.70;;;16.80;99.90;;;;;;5094135;27;20277;-76
2023/06/04 04:11:33;;;;;;;2.15;1.95;;;16.80;99.90;;;;;;5094483;27;20201;-76
2023/06/04 04:14:01;;;;;;;1.98;1.88;;;16.80;99.90;;;;;;5095687;28;20809;-76
2023/06/04 04:16:28;;;;;;;2.13;2.03;;;16.80;99.90;;;;;;5096064;28;20844;-78
2023/06/04 04:18:56;;;;;;;2.00;1.90;;;16.80;99.90;;;;;;5093372;28;20581;-77
2023/06/04 04:21:24;;;;;;;1.80;1.70;;;16.80;99.90;;;;;;5093618;28;20217;-77
2023/06/04 04:23:51;;;;;;;2.03;1.92;;;16.80;99.90;;;;;;5090527;28;20220;-77
2023/06/04 04:26:18;;;;;;;2.20;2.00;;;16.70;99.90;;;;;;5095812;28;20201;-77
2023/06/04 04:28:48;;;;;;;1.95;1.85;;;16.80;99.90;;;;;;5091266;28;20221;-77
2023/06/04 04:31:15;;;;;;;1.98;1.88;;;16.70;99.90;;;;;;5092167;27;20760;-77
2023/06/04 04:33:43;;;;;;;3.03;1.98;;;16.80;99.90;;;;;;5096169;28;20217;-77
2023/06/04 04:36:13;;;;;;;1.83;1.58;;;16.80;99.90;;;;;;5091111;28;20284;-76
2023/06/04 04:38:40;;;;;;;2.53;2.00;;;16.80;99.90;;;;;;5091510;28;20209;-76
2023/06/04 04:41:08;;;;;;;2.30;2.20;;;16.80;99.90;;;;;;5089955;28;20201;-77
2023/06/04 04:43:36;;;;;;;2.17;2.05;;;16.80;99.90;;;;;;5092645;28;20221;-77
2023/06/04 04:46:03;;;;;;;2.50;2.30;;;16.80;99.90;;;;;;5092408;27;20288;-77
2023/06/04 04:48:30;;;;;;;2.13;1.92;;;16.90;99.90;;;;;;5102097;27;20291;-77
2023/06/04 04:50:56;;;;;;;1.92;1.83;;;16.90;99.90;;;;;;5100430;27;20320;-77
2023/06/04 04:53:25;;;;;;;1.83;1.73;;;16.90;99.90;;;;;;5090233;28;20647;-77
2023/06/04 04:55:52;;;;;;;2.00;1.90;;;16.90;99.90;;;;;;5095240;27;20228;-77
2023/06/04 04:58:19;;;;;;;2.00;1.90;;;16.90;99.90;;;;;;5096838;28;20228;-76
2023/06/04 05:00:47;;;;;;;1.80;1.70;;;16.90;99.90;;;;;;5094412;27;20197;-77
2023/06/04 05:03:14;;;;;;;2.03;1.92;;;16.90;99.90;;;;;;5093044;27;20747;-78
2023/06/04 05:05:41;;;;;;;2.05;1.95;;;17.00;99.90;;;;;;5091473;27;20197;-77
2023/06/04 05:08:08;;;;;;;2.47;2.28;;;17.00;99.90;;;;;;5093660;27;20284;-77
2023/06/04 05:10:39;;;;;;;1.90;1.80;;;17.00;99.90;;;;;;5095676;27;20296;-77
2023/06/04 05:13:06;;;;;;;2.05;1.92;;;17.10;99.90;;;;;;5092800;28;20304;-77
2023/06/04 05:15:33;;;;;;;1.92;1.83;;;17.10;99.90;;;;;;5096922;28;20197;-77
2023/06/04 05:18:03;;;;;;;1.92;1.83;;;17.10;99.90;;;;;;5093682;28;20284;-76
2023/06/04 05:20:30;;;;;;;2.00;1.90;;;17.20;99.90;;;;;;5091207;28;20194;-77
2023/06/04 05:22:57;;;;;;;2.50;1.52;;;17.20;99.90;;;;;;5090945;27;20225;-78
2023/06/04 05:25:25;;;;;;;1.88;1.73;;;17.40;99.90;;;;;;5092769;28;20316;-77
2023/06/04 05:27:54;;;;;;;2.75;2.38;;;17.60;99.90;;;;;;5096629;28;20196;-76
2023/06/04 05:30:21;;;;;;;1.83;1.73;;;17.80;99.90;;;;;;5093863;28;20210;-77
2023/06/04 05:32:50;;;;;;;2.60;2.10;;;18.00;99.90;;;;;;5094038;27;20752;-77
2023/06/04 05:35:17;;;;;;;1.70;1.60;;;18.10;99.90;;;;;;5092663;28;20254;-77
2023/06/04 05:37:45;;;;;;;1.75;1.65;;;18.20;99.90;;;;;;5092552;28;20197;-77
2023/06/04 05:40:14;;;;;;;3.28;1.80;;;18.30;99.90;;;;;;5096289;28;20228;-77
2023/06/04 05:42:42;;;;;;;2.97;1.70;;;18.40;99.90;;;;;;5092452;28;20244;-76
2023/06/04 05:45:11;;;;;;;1.70;1.60;;;18.50;99.90;;;;;;5095711;27;20293;-77
2023/06/04 05:47:38;;;;;;;2.20;1.70;;;18.60;99.90;;;;;;5091338;28;20229;-76
2023/06/04 05:50:06;;;;;;;2.03;1.80;;;18.50;99.90;;;;;;5093962;28;20804;-76
2023/06/04 05:52:34;;;;;;;1.70;1.60;;;18.60;99.90;;;;;;5094474;28;20324;-77
2023/06/04 05:55:01;;;;;;;1.90;1.80;;;18.70;99.90;;;;;;5090466;27;20236;-77
2023/06/04 05:57:28;;;;;;;2.00;1.90;;;18.60;99.90;;;;;;5094828;28;20202;-77
2023/06/04 05:59:55;;;;;;;1.98;1.88;;;18.40;99.90;;;;;;5092916;27;20284;-77
2023/06/04 06:02:23;;;;;;;2.20;2.10;;;18.30;99.90;;;;;;5092753;28;20213;-78
2023/06/04 06:04:50;;;;;;;2.28;2.08;;;18.20;99.90;;;;;;5091618;28;20970;-77
2023/06/04 06:07:18;;;;;;;2.10;2.00;;;18.30;99.90;;;;;;5092793;28;20201;-78
2023/06/04 06:09:45;;;;;;;1.70;1.60;;;18.20;99.90;;;;;;5096029;28;20197;-77
2023/06/04 06:12:12;;;;;;;2.25;2.15;;;18.20;99.90;;;;;;5094660;28;20257;-75
2023/06/04 06:14:39;;;;;;;2.20;2.00;;;18.20;99.90;;;;;;5099259;27;20193;-77
2023/06/04 06:17:06;;;;;;;1.88;1.77;;;18.10;99.90;;;;;;5097048;28;20203;-76
2023/06/04 06:19:36;;;;;;;2.03;1.92;;;18.10;99.90;;;;;;5096564;28;20250;-78
2023/06/04 06:22:05;;;;;;;2.10;2.00;;;18.10;99.90;;;;;;5092186;28;20289;-77
2023/06/04 06:24:32;;;;;;;2.45;2.25;;;18.10;99.90;;;;;;5091176;28;20213;-74
2023/06/04 06:26:59;;;;;;;2.33;2.15;;;18.10;99.90;;;;;;5091374;28;20356;-76
2023/06/04 06:29:26;;;;;;;2.22;2.03;;;18.10;99.90;;;;;;5090698;28;20734;-77
2023/06/04 06:31:53;;;;;;;2.13;2.03;;;18.20;99.90;;;;;;5091996;28;20261;-76
2023/06/04 06:34:20;;;;;;;2.33;2.13;;;18.10;99.90;;;;;;5091757;28;20288;-77
2023/06/04 06:36:49;;;;;;;2.20;2.00;;;18.10;99.90;;;;;;5095582;27;21193;-76
2023/06/04 06:39:16;;;;;;;2.20;2.10;;;18.10;99.90;;;;;;5093277;27;20203;-77
2023/06/04 06:41:43;;;;;;;2.30;2.10;;;18.00;99.90;;;;;;5091127;28;20189;-76
2023/06/04 06:44:10;;;;;;;2.10;1.90;;;17.90;99.90;;;;;;5093435;28;20248;-77
2023/06/04 06:46:40;;;;;;;2.28;2.08;;;17.90;99.90;;;;;;5093030;28;20746;-77
2023/06/04 06:49:07;;;;;;;4.07;2.13;;;18.00;99.90;;;;;;5095234;28;20292;-76
2023/06/04 06:51:34;;;;;;;4.47;2.25;;;18.00;99.90;;;;;;5096067;28;20229;-76
2023/06/04 06:54:03;;;;;;;2.20;2.00;;;18.00;99.90;;;;;;5097926;28;20784;-76
2023/06/04 06:56:30;;;;;;;2.33;2.22;;;18.10;99.90;;;;;;5095220;28;20296;-76
2023/06/04 06:58:57;;;;;;;4.88;2.08;;;18.20;99.90;;;;;;5100419;28;20201;-75
2023/06/04 07:01:24;;;;;;;2.35;2.20;;;18.30;99.90;;;;;;5090683;28;20222;-77
2023/06/04 07:03:51;;;;;;;2.90;2.38;;;18.30;99.90;;;;;;5097747;28;20722;-77
2023/06/04 07:06:18;;;;;;;2.40;2.10;;;18.40;99.90;;;;;;5089605;28;20288;-77
2023/06/04 07:08:48;;;;;;;2.45;2.25;;;18.40;99.90;;;;;;5091604;28;20204;-76
2023/06/04 07:11:16;;;;;;;2.60;2.40;;;18.40;99.90;;;;;;5094086;28;20694;-77
2023/06/04 07:13:43;;;;;;;2.40;2.20;;;18.50;99.90;;;;;;5093574;27;20278;-76
2023/06/04 07:16:10;;;;;;;2.78;2.50;;;18.60;99.90;;;;;;5091977;28;20731;-76
2023/06/04 07:18:37;;;;;;;2.92;2.33;;;18.70;99.90;;;;;;5090219;28;20287;-77
2023/06/04 07:21:05;;;;;;;2.30;2.10;;;18.70;99.90;;;;;;5092101;28;20254;-77
2023/06/04 07:23:32;;;;;;;2.80;1.98;;;18.70;99.90;;;;;;5094360;27;20625;-76
2023/06/04 07:25:59;;;;;;;2.65;2.45;;;18.70;99.90;;;;;;5097376;28;20224;-77
2023/06/04 07:28:27;;;;;;;2.63;2.40;;;18.70;99.90;;;;;;5099021;28;20281;-77
2023/06/04 07:30:54;;;;;;;2.75;2.55;;;18.80;99.90;;;;;;5094708;28;20317;-77
2023/06/04 07:33:22;;;;;;;2.40;2.20;;;18.90;99.90;;;;;;5095095;28;20217;-77
2023/06/04 07:35:49;;;;;;;2.80;2.33;;;18.90;99.90;;;;;;5095334;28;20986;-77
2023/06/04 07:38:16;;;;;;;2.60;2.40;;;18.90;99.90;;;;;;5096624;28;20196;-77
2023/06/04 07:40:43;;;;;;;3.20;2.40;;;18.90;99.90;;;;;;5096861;28;20251;-76
2023/06/04 07:43:10;;;;;;;2.20;2.00;;;19.00;99.90;;;;;;5097633;28;20320;-77
2023/06/04 07:45:38;;;;;;;3.08;2.58;;;19.10;99.90;;;;;;5094315;28;20204;-76
2023/06/04 07:48:05;;;;;;;2.75;2.55;;;19.10;99.90;;;;;;5083592;28;20194;-77
2023/06/04 07:50:32;;;;;;;2.72;2.53;;;19.10;99.90;;;;;;5083587;28;20301;-78
2023/06/04 07:52:59;;;;;;;2.67;2.47;;;19.10;99.90;;;;;;5090498;28;20662;-77
2023/06/04 07:55:27;;;;;;;2.63;2.40;;;19.10;99.90;;;;;;5086421;28;20292;-77
2023/06/04 07:57:54;;;;;;;2.40;2.20;;;19.10;99.90;;;;;;5087491;28;20866;-76
2023/06/04 08:00:21;;;;;;;2.80;2.45;;;19.20;99.90;;;;;;5084360;28;20262;-76
2023/06/04 08:02:50;;;;;;;2.65;2.45;;;19.30;99.90;;;;;;5084398;28;20221;-77
2023/06/04 08:05:17;;;;;;;2.35;2.25;;;19.20;99.90;;;;;;5086298;28;20201;-76
2023/06/04 08:07:45;;;;;;;2.95;2.40;;;19.10;99.90;;;;;;5082844;28;20201;-78
2023/06/04 08:10:12;;;;;;;2.15;2.00;;;19.10;99.90;;;;;;5083546;28;20205;-76
2023/06/04 08:12:39;;;;;;;2.42;2.20;;;19.10;99.90;;;;;;5077887;28;20245;-75
2023/06/04 08:15:07;;;;;;;2.03;1.92;;;19.10;99.90;;;;;;5085013;28;20434;-76
2023/06/04 08:17:34;;;;;;;3.20;1.95;;;19.20;99.90;;;;;;5092509;28;20691;-76
2023/06/04 08:20:06;;;;;;;2.40;2.20;;;19.40;99.90;;;;;;5089729;28;20937;-76
2023/06/04 08:22:33;;;;;;;2.03;1.90;;;19.40;99.90;;;;;;5090197;28;20214;-76
2023/06/04 08:25:00;;;;;;;2.53;2.35;;;19.30;99.90;;;;;;5091441;28;20194;-76
2023/06/04 08:27:27;;;;;;;2.40;2.20;;;19.30;99.90;;;;;;5091596;28;20225;-77
2023/06/04 08:29:54;;;;;;;2.25;2.05;;;19.30;99.90;;;;;;5089311;28;20209;-76
2023/06/04 08:32:21;;;;;;;2.50;2.30;;;19.30;99.90;;;;;;5093442;28;20637;-77
2023/06/04 08:34:48;;;;;;;3.55;2.33;;;19.30;99.90;;;;;;5092555;28;20238;-75
2023/06/04 08:37:16;;;;;;;2.53;2.33;;;19.30;99.90;;;;;;5096106;28;20205;-75
2023/06/04 08:39:43;;;;;;;1.98;1.88;;;19.30;99.90;;;;;;5091947;28;20229;-75
2023/06/04 08:42:19;;;;;;;1.98;1.88;;;19.40;99.90;;;;;;5092538;28;20726;-77
2023/06/04 08:44:48;;;;;;;2.00;1.90;;;19.40;99.90;;;;;;5101008;27;20224;-77
2023/06/04 08:47:16;;;;;;;2.97;2.00;;;19.40;99.90;;;;;;5097402;28;20663;-77
2023/06/04 08:49:46;;;;;;;2.88;2.30;;;19.40;99.90;;;;;;5096954;28;20229;-76
2023/06/04 08:52:13;;;;;;;2.90;2.28;;;19.50;99.90;;;;;;5100414;28;20249;-78
2023/06/04 08:54:42;;;;;;;2.40;2.30;;;19.50;99.90;;;;;;5097376;28;20251;-78
2023/06/04 08:57:10;;;;;;;3.15;2.38;;;19.50;99.90;;;;;;5097529;28;20282;-77
2023/06/04 08:59:38;;;;;;;2.00;1.90;;;19.60;99.90;;;;;;5096184;28;20197;-77
2023/06/04 09:02:05;;;;;;;2.25;2.15;;;19.60;99.90;;;;;;5097169;28;20251;-76
2023/06/04 09:04:33;;;;;;;2.30;2.10;;;19.60;99.90;;;;;;5093593;28;20637;-76
2023/06/04 09:07:03;;;;;;;1.90;1.80;;;19.60;99.90;;;;;;5101600;28;20228;-76
2023/06/04 09:09:31;;;;;;;2.05;1.95;;;19.60;99.90;;;;;;5093453;28;20245;-77
2023/06/04 09:12:04;;;;;;;2.00;1.85;;;19.70;99.90;;;;;;5096637;28;20304;-74
2023/06/04 09:14:31;;;;;;;2.13;2.00;;;19.70;99.90;;;;;;5092310;28;20250;-75
2023/06/04 09:16:59;;;;;;;2.08;1.95;;;19.80;99.90;;;;;;5096125;28;20707;-77
2023/06/04 09:19:26;;;;;;;2.42;2.33;;;19.80;99.90;;;;;;5091799;28;20259;-76
2023/06/04 09:21:55;;;;;;;2.08;1.98;;;19.90;99.90;;;;;;5089028;28;20273;-75
2023/06/04 09:24:23;;;;;;;2.00;1.80;;;20.00;99.90;;;;;;5088686;27;20251;-76
2023/06/04 09:26:53;;;;;;;2.25;2.05;;;20.20;99.90;;;;;;5092211;27;20259;-75
2023/06/04 09:29:21;;;;;;;2.40;1.90;;;20.30;99.90;;;;;;5090815;28;20229;-75
2023/06/04 09:31:58;;;;;;;2.40;2.20;;;20.40;99.90;;;;;;5092337;27;20229;-77
2023/06/04 09:34:28;;;;;;;2.08;1.90;;;20.50;99.90;;;;;;5096667;27;20202;-77
2023/06/04 09:36:56;;;;;;;3.03;2.10;;;20.50;99.90;;;;;;5086846;27;20895;-76
2023/06/04 09:39:24;;;;;;;2.75;2.20;;;20.70;99.90;;;;;;5088593;27;20208;-73
2023/06/04 09:42:00;;;;;;;2.10;2.00;;;20.80;99.90;;;;;;5088816;28;20831;-76
2023/06/04 09:44:30;;;;;;;2.20;2.10;;;20.90;99.90;;;;;;5087821;27;20204;-75
2023/06/04 09:46:58;;;;;;;2.58;2.38;;;20.90;99.90;;;;;;5089776;28;20190;-75
2023/06/04 09:49:25;;;;;;;3.10;2.20;;;20.70;99.90;;;;;;5095885;27;20258;-77
2023/06/04 09:51:52;;;;;;;2.03;1.83;;;20.60;99.90;;;;;;5096138;27;20218;-75
2023/06/04 09:54:19;;;;;;;2.25;2.15;;;20.60;99.90;;;;;;5088909;28;20353;-75
2023/06/04 09:56:46;;;;;;;3.83;2.17;;;20.60;99.90;;;;;;5089090;28;20284;-76
2023/06/04 09:59:14;;;;;;;2.30;2.10;;;21.00;99.90;;;;;;5090574;28;20291;-76
2023/06/04 10:01:43;;;;;;;3.72;2.50;;;21.20;99.90;;;;;;5098383;27;20202;-77
2023/06/04 10:04:12;;;;;;;2.50;2.30;;;21.30;99.90;;;;;;5095070;27;20263;-77
2023/06/04 10:06:40;;;;;;;2.20;2.00;;;21.40;99.90;;;;;;5092284;28;20582;-77
2023/06/04 10:09:09;;;;;;;2.22;2.03;;;21.40;99.90;;;;;;5097329;27;20224;-75
2023/06/04 10:11:38;;;;;;;2.85;2.05;;;21.50;99.90;;;;;;5092067;27;20305;-77
2023/06/04 10:14:12;;;;;;;3.55;2.63;;;21.50;99.90;;;;;;5097978;28;20220;-76
2023/06/04 10:16:40;;;;;;;2.47;2.28;;;21.50;99.90;;;;;;5093601;27;20201;-77
2023/06/04 10:19:09;;;;;;;1.92;1.83;;;21.50;99.90;;;;;;5095970;27;20729;-78
2023/06/04 10:21:37;;;;;;;2.25;2.13;;;21.70;99.90;;;;;;5096224;27;20193;-77
2023/06/04 10:24:05;;;;;;;2.28;2.10;;;21.60;99.90;;;;;;5096506;28;20209;-76
2023/06/04 10:26:35;;;;;;;3.05;2.33;;;21.80;99.90;;;;;;5089165;27;20215;-76
2023/06/04 10:29:02;;;;;;;2.20;2.10;;;21.90;99.90;;;;;;5095097;27;20404;-77
2023/06/04 10:31:30;;;;;;;2.47;2.28;;;21.80;99.90;;;;;;5091935;27;20300;-78
2023/06/04 10:33:57;;;;;;;2.13;2.03;;;21.90;99.90;;;;;;5092157;28;20795;-76
2023/06/04 10:36:26;;;;;;;2.67;2.47;;;21.90;99.90;;;;;;5090144;28;20340;-75
2023/06/04 10:38:55;;;;;;;2.20;2.10;;;22.10;99.90;;;;;;5092598;27;20204;-76
2023/06/04 10:41:24;;;;;;;2.22;2.03;;;22.30;99.90;;;;;;5091603;28;20200;-76
2023/06/04 10:43:52;;;;;;;2.25;2.05;;;22.30;99.90;;;;;;5091741;28;20217;-77
2023/06/04 10:46:21;;;;;;;2.58;2.38;;;22.40;99.90;;;;;;5087584;28;20198;-75
2023/06/04 10:48:49;;;;;;;2.08;1.98;;;22.40;99.90;;;;;;5087894;28;20297;-76
2023/06/04 10:51:17;;;;;;;1.98;1.88;;;22.30;99.90;;;;;;5091122;28;20193;-77
2023/06/04 10:53:45;;;;;;;2.28;1.92;;;22.40;99.90;;;;;;5090978;28;20282;-76
2023/06/04 10:56:12;;;;;;;2.33;2.13;;;22.40;99.90;;;;;;5090978;28;20201;-75
2023/06/04 10:58:40;;;;;;;1.75;1.60;;;22.60;99.90;;;;;;5092468;27;20205;-77
2023/06/04 11:01:07;;;;;;;1.95;1.77;;;22.70;99.90;;;;;;5090772;27;21019;-77
2023/06/04 11:03:38;;;;;;;1.92;1.83;;;22.80;99.90;;;;;;5088237;27;20294;-74
2023/06/04 11:06:17;;;;;;;2.10;1.95;;;22.90;99.90;;;;;;5086491;28;20218;-76
2023/06/04 11:08:46;;;;;;;1.85;1.75;;;22.90;99.90;;;;;;5087620;28;20201;-73
2023/06/04 11:11:13;;;;;;;1.88;1.77;;;23.00;99.90;;;;;;5089562;28;20363;-74
2023/06/04 11:13:40;;;;;;;2.35;2.13;;;23.50;99.90;;;;;;5090748;28;20249;-75
2023/06/04 11:16:16;;;;;;;2.95;1.90;;;24.00;99.90;;;;;;5086122;27;20205;-75
2023/06/04 11:18:44;;;;;;;1.85;1.75;;;23.80;99.90;;;;;;5089432;28;20204;-74
2023/06/04 11:21:14;;;;;;;2.30;2.10;;;23.60;99.90;;;;;;5088834;28;20670;-75
2023/06/04 11:23:42;;;;;;;1.52;1.42;;;23.60;99.90;;;;;;5087860;28;20217;-75
2023/06/04 11:26:11;;;;;;;1.70;1.60;;;23.70;99.90;;;;;;5089235;28;20229;-75
2023/06/04 11:28:38;;;;;;;2.85;2.00;;;23.80;99.90;;;;;;5087946;27;20296;-75
2023/06/04 11:31:05;;;;;;;1.90;1.80;;;23.60;99.90;;;;;;5088161;28;20295;-74
2023/06/04 11:33:43;;;;;;;2.00;1.90;;;23.40;99.90;;;;;;5092704;27;20220;-74
2023/06/04 11:36:10;;;;;;;2.00;1.90;;;23.30;99.90;;;;;;5084849;28;20208;-74
2023/06/04 11:38:37;;;;;;;1.88;1.77;;;23.20;99.90;;;;;;5089048;28;20205;-75
2023/06/04 11:41:05;;;;;;;3.45;1.85;;;23.30;99.90;;;;;;5092262;28;20283;-75
2023/06/04 11:43:39;;;;;;;1.70;1.60;;;23.10;99.90;;;;;;5089280;28;20217;-74
2023/06/04 11:46:09;;;;;;;1.90;1.80;;;22.90;99.90;;;;;;5089550;28;20667;-76
2023/06/04 11:48:37;;;;;;;1.83;1.73;;;22.50;99.90;;;;;;5090857;28;20202;-76
2023/06/04 11:51:09;;;;;;;1.83;1.73;;;22.10;99.90;;;;;;5089241;28;21497;-72
2023/06/04 11:53:38;;;;;;;1.80;1.70;;;22.00;99.90;;;;;;5093247;28;20248;-76
2023/06/04 11:56:05;;;;;;;1.92;1.83;;;21.90;99.90;;;;;;5094646;28;20193;-75
2023/06/04 11:58:34;;;;;;;1.70;1.60;;;21.80;99.90;;;;;;5087719;28;20722;-77
2023/06/04 12:01:02;;;;;;;1.73;1.60;;;21.50;99.90;;;;;;5093142;28;20205;-74
2023/06/04 12:03:36;;;;;;;1.85;1.67;;;21.40;99.90;;;;;;5083439;28;20224;-75
2023/06/04 12:06:15;;;;;;;1.60;1.50;;;21.40;99.90;;;;;;5080254;28;20291;-75
2023/06/04 12:08:49;;;;;;;1.70;1.58;;;21.50;99.90;;;;;;5089181;28;20207;-74
2023/06/04 12:11:31;;;;;;;1.38;1.27;;;21.40;99.90;;;;;;5089001;28;20803;-75
2023/06/04 12:14:00;;;;;;;4.40;1.80;;;21.30;99.90;;;;;;5094648;28;20221;-74
2023/06/04 12:16:28;;;;;;;1.70;1.60;;;21.20;99.90;;;;;;5090358;28;20473;-74
2023/06/04 12:19:07;;;;;;;1.50;1.40;;;21.10;99.90;;;;;;5090617;28;20209;-75
2023/06/04 12:21:34;;;;;;;1.95;1.85;;;21.20;99.90;;;;;;5095661;27;20227;-75
2023/06/04 12:24:08;;;;;;;1.60;1.50;;;21.30;99.90;;;;;;5097092;27;20336;-74
2023/06/04 12:26:37;;;;;;;1.75;1.65;;;21.30;99.90;;;;;;5092979;28;20205;-75
2023/06/04 12:29:11;;;;;;;2.10;1.73;;;21.30;99.90;;;;;;5097894;27;20221;-74
2023/06/04 12:31:38;;;;;;;3.70;1.88;;;21.20;99.90;;;;;;5096411;28;20196;-74
2023/06/04 12:34:05;;;;;;;1.60;1.50;;;21.10;99.90;;;;;;5101223;28;20255;-75
2023/06/04 12:36:34;;;;;;;1.88;1.77;;;21.00;99.90;;;;;;5094235;28;20268;-75
2023/06/04 12:39:03;;;;;;;2.38;1.50;;;21.00;99.90;;;;;;5098760;27;20824;-75
2023/06/04 12:41:30;;;;;;;1.85;1.75;;;21.00;99.90;;;;;;5097531;28;20250;-74
2023/06/04 12:43:58;;;;;;;1.80;1.70;;;21.00;99.90;;;;;;5102241;28;20217;-74
2023/06/04 12:46:26;;;;;;;1.70;1.60;;;21.00;99.90;;;;;;5096910;28;20197;-75
2023/06/04 12:48:55;;;;;;;1.50;1.40;;;21.00;99.90;;;;;;5098334;27;20212;-75
2023/06/04 12:51:22;;;;;;;1.75;1.65;;;21.00;99.90;;;;;;5097961;28;20858;-75
2023/06/04 12:53:49;;;;;;;1.73;1.63;;;20.90;99.90;;;;;;5097637;27;20935;-75